KELN/ELN METAR and TAF weather

Enter ICAO airport designator
Station Type Date Time Source
KELN METAR 2020/01/20 16:10 UTC NOAA

KELN 201610Z AUTO 03005KT 2SM BR SCT002 OVC110 M01/M03 A3007 RMK AO2 T10111028


Station Type Date Time Source
KELN Decoded METAR 2020/01/20 16:10 UTC NOAA

ELLENSBURG BOWERS FIELD, WA, United States (KELN) 47-02N 120-32W 519M
Jan 20, 2020 - 11:10 AM EST / 2020.01.20 1610 UTC
Wind: from the NNE (030 degrees) at 6 MPH (5 KT):0
Visibility: 2 mile(s):0
Sky conditions: overcast
Weather: mist
Temperature: 30.0 F (-1.1 C)
Windchill: 23 F (-5 C):1
Dew Point: 27.0 F (-2.8 C)
Relative Humidity: 88%
Pressure (altimeter): 30.07 in. Hg (1018 hPa)
ob: KELN 201610Z AUTO 03005KT 2SM BR SCT002 OVC110 M01/M03 A3007 RMK AO2 T10111028
cycle: 16

Station Type Date Time Source
KELN TAF UTC NOAA

Error!

Example: see airport list